Hundvaag 1 weather for Jan 2001
Month no. 163
Obs.
Da.
Temp. Dew Point Precip. Wind
Speed
Wind gusts Cloud cover Press. Humidity Wind dir. Sunny OPT
01.01.2001 2,8   1,6     0 1001,6        
02.01.2001 4,0   0,8     10 1000,8     1  
03.01.2001 6,4   0,1     0 997,2        
04.01.2001 5,0   5,7     3 1002,5        
05.01.2001 6,8   0,3     2 999,6     1  
06.01.2001 5,4   0,3     0 995,9        
07.01.2001 4,6   1,2     0 999,7        
08.01.2001 5,2   5,3     0 1002,7     1  
09.01.2001 3,8   4,3     3 1008,0     1  
10.01.2001 -0,3   0,1     10 1015,2     1  
11.01.2001 1,0   0,6     0 1019,3     1  
12.01.2001 1,6   1,0     10 1022,7        
13.01.2001 -1,3   0,0     5 1026,4        
14.01.2001 -0,8   0,0     9 1027,1     1  
15.01.2001 -1,5   0,0     10 1025,6     1  
16.01.2001 -3,0   0,0     4 1024,3     1  
17.01.2001 -1,2   0,0     0 1023,1        
18.01.2001 -1,3   0,0     0 1009,3        
19.01.2001 1,5   0,0     0 1009,5        
20.01.2001 0,5   0,0     0 1023,7        
21.01.2001 2,1   0,0     1 1021,9        
22.01.2001 2,1   0,0     1 1018,8        
23.01.2001 2,3   0,0     0 1008,0        
24.01.2001 5,2   6,3     0 994,1     1  
25.01.2001 6,0   8,7     1 1000,3        
26.01.2001 4,9   6,8     0 1000,1        
27.01.2001 3,7   19,7     0 1000,3        
28.01.2001 4,3   8,7     0 1005,6        
29.01.2001 2,8   1,5     5 1012,0     1  
30.01.2001 -0,8   5,0     10 1016,1     1  
31.01.2001 -0,4   0,0     10 1019,6     1  
Avrg/Sum 2,3   78,0     3,0 1010,7     13